KTLH

Tallahassee International Airport

Tallahassee, Florida, USA
METAR KTLH 232253Z 28004KT 10SM BKN250 17/01 A3005 RMK AO2 SLP175 T01720011 $
Observed Flight Rules
Jan-23 @ 22:53 UTC (51 minutes ago) Visual Flight Rules
Wind Visibility Clouds
280° at 4 knots 10 miles
  • Broken at 25,000' AGL
Temperatures Readings
Current 17°C / 63°F
Dewpoint 1°C / 34°F
Humidity 34%
Altimeter 30.05" Hg
Pressure 1017.5 hPa
Elevation 19
METAR KTLH 232253Z 28004KT 10SM BKN250 17/01 A3005 RMK AO2 SLP175 T01720011 $
Observed Flight Rules
Jan-23 @ 22:53 UTC
(51 minutes ago)
VFR
Wind Visibility
280° at 4 knots 10 miles
Clouds
  • Broken at 25,000' AGL
Temperature Dewpoint
17°C / 63°F 1°C / 34°F
Humidity Altimeter Pressure
34% 30.05" Hg 1017.5 hPa